createdAt,value
2018-08-31T00:02:13.954Z,12.60
2018-08-31T00:04:47.672Z,12.60
2018-08-31T00:07:28.834Z,12.60
2018-08-31T00:12:11.258Z,12.60
2018-08-31T00:14:39.930Z,12.70
2018-08-31T00:17:08.597Z,12.60
2018-08-31T00:19:36.840Z,12.70
2018-08-31T00:22:05.222Z,12.70
2018-08-31T00:24:38.970Z,12.60
2018-08-31T00:27:16.469Z,12.60
2018-08-31T00:29:51.873Z,12.60
2018-08-31T00:34:30.849Z,12.60
2018-08-31T00:37:05.222Z,12.60
2018-08-31T00:41:42.679Z,12.60
2018-08-31T00:46:24.217Z,12.60
2018-08-31T00:48:52.848Z,12.50
2018-08-31T00:51:21.782Z,12.50
2018-08-31T00:53:49.916Z,12.40
2018-08-31T00:56:17.963Z,12.50
2018-08-31T00:58:45.981Z,12.50
2018-08-31T01:01:14.072Z,12.50
2018-08-31T01:03:41.893Z,12.50
2018-08-31T01:06:10.136Z,12.50
2018-08-31T01:08:38.378Z,12.60
2018-08-31T01:11:06.280Z,12.60
2018-08-31T01:13:35.408Z,12.60
2018-08-31T01:16:03.307Z,12.70
2018-08-31T01:18:31.301Z,12.70
2018-08-31T01:20:59.499Z,12.70
2018-08-31T01:23:27.943Z,12.70
2018-08-31T01:25:55.913Z,12.70
2018-08-31T01:28:23.835Z,12.80
2018-08-31T01:30:52.410Z,12.80
2018-08-31T01:33:20.818Z,12.80
2018-08-31T01:35:49.285Z,12.70
2018-08-31T01:38:17.741Z,12.80
2018-08-31T01:40:46.055Z,12.80
2018-08-31T01:43:13.947Z,12.80
2018-08-31T01:45:41.945Z,12.80
2018-08-31T01:48:09.911Z,12.80
2018-08-31T01:50:42.348Z,12.80
2018-08-31T01:53:10.556Z,12.80
2018-08-31T01:55:38.488Z,12.80
2018-08-31T01:58:06.679Z,12.80
2018-08-31T02:00:36.111Z,12.80
2018-08-31T02:03:04.467Z,12.80
2018-08-31T02:05:32.819Z,12.80
2018-08-31T02:08:00.946Z,12.80
2018-08-31T02:10:28.944Z,12.70
2018-08-31T02:12:56.806Z,12.70
2018-08-31T02:15:24.951Z,12.70
2018-08-31T02:17:53.070Z,12.70
2018-08-31T02:20:21.216Z,12.70
2018-08-31T02:22:49.755Z,12.70
2018-08-31T02:25:18.141Z,12.70
2018-08-31T02:27:46.857Z,12.70
2018-08-31T02:30:15.352Z,12.70
2018-08-31T02:32:43.623Z,12.70
2018-08-31T02:35:12.304Z,12.70
2018-08-31T02:37:40.400Z,12.70
2018-08-31T02:40:08.801Z,13.00
2018-08-31T02:42:37.255Z,12.70
2018-08-31T02:45:05.573Z,12.70
2018-08-31T02:47:34.645Z,12.70
2018-08-31T02:50:02.813Z,12.70
2018-08-31T02:52:31.158Z,12.70
2018-08-31T02:54:59.942Z,12.70
2018-08-31T02:57:28.196Z,12.70
2018-08-31T02:59:57.199Z,12.70
2018-08-31T03:02:25.730Z,12.70
2018-08-31T03:04:53.778Z,12.70
2018-08-31T03:07:21.901Z,12.70
2018-08-31T03:09:50.215Z,12.70
2018-08-31T03:12:19.211Z,12.70
2018-08-31T03:14:47.611Z,12.60
2018-08-31T03:17:15.967Z,12.60
2018-08-31T03:19:44.453Z,12.60
2018-08-31T03:22:13.150Z,12.50
2018-08-31T03:24:41.224Z,12.50
2018-08-31T03:27:09.370Z,12.50
2018-08-31T03:29:37.993Z,12.40
2018-08-31T03:32:06.017Z,12.40
2018-08-31T03:34:34.378Z,12.40
2018-08-31T03:37:02.723Z,12.30
2018-08-31T03:39:31.353Z,12.40
2018-08-31T03:41:59.628Z,12.40
2018-08-31T03:44:28.095Z,12.30
2018-08-31T03:46:56.916Z,12.30
2018-08-31T03:49:26.160Z,12.30
2018-08-31T03:51:54.431Z,12.20
2018-08-31T03:54:22.910Z,12.20
2018-08-31T03:56:51.494Z,12.20
2018-08-31T03:59:19.898Z,12.20
2018-08-31T04:01:48.399Z,12.20
2018-08-31T04:04:17.132Z,12.20
2018-08-31T04:06:45.167Z,12.20
2018-08-31T04:09:13.471Z,12.20
2018-08-31T04:11:41.400Z,12.20
2018-08-31T04:14:09.648Z,12.20
2018-08-31T04:16:37.709Z,12.20
2018-08-31T04:19:12.966Z,12.20
2018-08-31T04:21:41.029Z,12.20
2018-08-31T04:24:09.128Z,12.10
2018-08-31T04:26:40.634Z,12.10
2018-08-31T04:29:09.976Z,12.00
2018-08-31T04:31:38.494Z,12.00
2018-08-31T04:34:06.992Z,11.90
2018-08-31T04:36:35.270Z,11.90
2018-08-31T04:39:04.794Z,11.90
2018-08-31T04:41:33.429Z,11.90
2018-08-31T04:44:01.788Z,12.00
2018-08-31T04:46:30.018Z,12.00
2018-08-31T04:48:58.187Z,12.00
2018-08-31T04:51:27.271Z,12.00
2018-08-31T04:53:55.377Z,12.00
2018-08-31T04:56:24.110Z,12.00
2018-08-31T04:58:52.920Z,12.10
2018-08-31T05:01:21.214Z,12.00
2018-08-31T05:03:49.707Z,12.10
2018-08-31T05:06:17.786Z,12.10
2018-08-31T05:08:46.721Z,12.10
2018-08-31T05:11:15.117Z,12.10
2018-08-31T05:13:43.653Z,12.20
2018-08-31T05:18:39.821Z,11.90
2018-08-31T05:21:08.099Z,12.10
2018-08-31T05:23:36.377Z,12.10
2018-08-31T05:26:08.387Z,12.10
2018-08-31T05:28:36.248Z,12.00
2018-08-31T05:31:04.850Z,12.10
2018-08-31T05:33:33.052Z,12.20
2018-08-31T05:36:01.460Z,12.30
2018-08-31T05:38:29.659Z,12.50
2018-08-31T05:40:57.565Z,12.60
2018-08-31T05:43:25.648Z,12.70
2018-08-31T05:45:54.154Z,12.70
2018-08-31T05:48:22.920Z,12.80
2018-08-31T05:50:51.180Z,12.90
2018-08-31T05:53:19.297Z,13.00
2018-08-31T05:55:47.430Z,13.20
2018-08-31T05:58:15.963Z,13.30
2018-08-31T06:00:44.286Z,13.40
2018-08-31T06:03:12.424Z,13.40
2018-08-31T06:05:40.421Z,13.40
2018-08-31T06:08:09.110Z,13.30
2018-08-31T06:10:37.449Z,13.20
2018-08-31T06:13:09.228Z,13.30
2018-08-31T06:15:38.123Z,13.30
2018-08-31T06:18:07.587Z,13.30
2018-08-31T06:20:35.621Z,13.40
2018-08-31T06:23:03.721Z,13.40
2018-08-31T06:25:32.653Z,13.50
2018-08-31T06:28:00.814Z,13.50
2018-08-31T06:30:28.955Z,13.60
2018-08-31T06:32:57.781Z,13.60
2018-08-31T06:35:25.804Z,13.60
2018-08-31T06:37:54.593Z,13.60
2018-08-31T06:40:22.955Z,13.60
2018-08-31T06:42:51.435Z,13.60
2018-08-31T06:45:20.924Z,13.40
2018-08-31T06:47:48.687Z,13.40
2018-08-31T06:50:18.245Z,13.40
2018-08-31T06:52:47.049Z,13.30
2018-08-31T06:55:15.436Z,13.30
2018-08-31T06:57:43.732Z,13.30
2018-08-31T07:00:13.531Z,13.40
2018-08-31T07:02:41.706Z,13.50
2018-08-31T07:05:11.080Z,13.60
2018-08-31T07:07:39.394Z,13.70
2018-08-31T07:10:07.344Z,13.80
2018-08-31T07:12:35.232Z,13.90
2018-08-31T07:15:04.165Z,14.00
2018-08-31T07:17:33.105Z,14.10
2018-08-31T07:20:01.164Z,14.10
2018-08-31T07:22:29.489Z,14.20
2018-08-31T07:24:57.576Z,14.30
2018-08-31T07:27:26.085Z,14.40
2018-08-31T07:29:54.840Z,14.50
2018-08-31T07:32:24.438Z,14.50
2018-08-31T07:34:52.995Z,14.60
2018-08-31T07:37:21.721Z,14.50
2018-08-31T07:39:50.414Z,14.50
2018-08-31T07:42:19.352Z,14.50
2018-08-31T07:44:51.911Z,14.50
2018-08-31T07:47:20.389Z,14.50
2018-08-31T07:49:48.490Z,14.50
2018-08-31T07:52:18.716Z,14.50
2018-08-31T07:54:47.882Z,14.40
2018-08-31T07:57:16.031Z,14.30
2018-08-31T07:59:44.567Z,14.30
2018-08-31T08:02:13.354Z,14.20
2018-08-31T08:04:42.070Z,14.20
2018-08-31T08:07:11.142Z,14.20
2018-08-31T08:09:39.566Z,14.20
2018-08-31T08:12:07.931Z,14.10
2018-08-31T08:14:36.364Z,14.10
2018-08-31T08:17:04.919Z,14.10
2018-08-31T08:19:32.996Z,14.00
2018-08-31T08:24:47.233Z,14.00
2018-08-31T08:27:15.810Z,14.10
2018-08-31T08:29:44.233Z,14.20
2018-08-31T08:32:12.638Z,14.30
2018-08-31T08:34:41.063Z,14.40
2018-08-31T08:37:09.820Z,14.40
2018-08-31T08:39:37.979Z,14.50
2018-08-31T08:42:06.465Z,14.60
2018-08-31T08:44:38.577Z,14.70
2018-08-31T08:47:07.698Z,14.70
2018-08-31T08:49:36.770Z,14.70
2018-08-31T08:52:04.902Z,14.80
2018-08-31T08:54:34.067Z,15.00
2018-08-31T08:57:02.367Z,15.20
2018-08-31T08:59:30.800Z,15.40
2018-08-31T09:01:58.866Z,15.60
2018-08-31T09:04:28.883Z,15.80
2018-08-31T09:06:57.107Z,16.00
2018-08-31T09:09:25.425Z,15.90
2018-08-31T09:11:54.211Z,15.90
2018-08-31T09:14:22.679Z,15.70
2018-08-31T09:16:50.788Z,15.60
2018-08-31T09:19:19.346Z,15.60
2018-08-31T09:21:47.930Z,15.60
2018-08-31T09:24:16.193Z,15.60
2018-08-31T09:26:44.457Z,15.70
2018-08-31T09:29:12.851Z,15.90
2018-08-31T09:31:41.463Z,16.20
2018-08-31T09:34:09.911Z,16.50
2018-08-31T09:36:38.161Z,16.70
2018-08-31T09:39:07.579Z,16.90
2018-08-31T09:41:35.802Z,16.80
2018-08-31T09:44:03.854Z,16.70
2018-08-31T09:46:31.826Z,16.80
2018-08-31T09:48:59.972Z,17.00
2018-08-31T09:51:28.605Z,17.30
2018-08-31T09:53:57.500Z,17.50
2018-08-31T09:56:26.605Z,17.70
2018-08-31T09:58:55.001Z,17.80
2018-08-31T10:01:29.239Z,17.60
2018-08-31T10:04:00.900Z,17.50
2018-08-31T10:06:29.487Z,17.60
2018-08-31T10:08:57.509Z,17.60
2018-08-31T10:11:26.564Z,17.50
2018-08-31T10:13:54.900Z,17.40
2018-08-31T10:16:23.302Z,17.30
2018-08-31T10:18:51.413Z,17.30
2018-08-31T10:21:20.277Z,17.40
2018-08-31T10:23:48.696Z,17.50
2018-08-31T10:26:17.295Z,17.60
2018-08-31T10:28:45.644Z,17.60
2018-08-31T10:31:13.655Z,17.70
2018-08-31T10:33:41.906Z,17.70
2018-08-31T10:36:11.396Z,18.00
2018-08-31T10:38:39.357Z,18.40
2018-08-31T10:41:07.560Z,18.50
2018-08-31T10:43:35.710Z,18.30
2018-08-31T10:46:04.125Z,18.00
2018-08-31T10:48:32.493Z,17.90
2018-08-31T10:51:01.325Z,18.10
2018-08-31T10:53:29.603Z,18.10
2018-08-31T10:55:58.741Z,17.90
2018-08-31T10:58:26.946Z,17.80
2018-08-31T11:00:54.951Z,17.70
2018-08-31T11:03:23.442Z,17.70
2018-08-31T11:05:51.551Z,17.70
2018-08-31T11:08:19.709Z,17.60
2018-08-31T11:10:47.895Z,17.80
2018-08-31T11:13:15.861Z,18.00
2018-08-31T11:15:44.029Z,18.30
2018-08-31T11:18:12.352Z,18.60
2018-08-31T11:20:40.564Z,18.90
2018-08-31T11:23:08.663Z,19.20
2018-08-31T11:25:36.846Z,19.50
2018-08-31T11:28:05.465Z,19.70
2018-08-31T11:30:33.695Z,19.80
2018-08-31T11:33:02.155Z,19.60
2018-08-31T11:35:30.252Z,19.50
2018-08-31T11:37:58.373Z,19.30
2018-08-31T11:40:26.806Z,19.20
2018-08-31T11:42:55.370Z,19.40
2018-08-31T11:45:23.862Z,19.70
2018-08-31T11:47:52.496Z,19.90
2018-08-31T11:50:21.039Z,19.90
2018-08-31T11:52:49.848Z,20.00
2018-08-31T11:55:27.665Z,20.10
2018-08-31T11:58:09.415Z,20.10
2018-08-31T12:00:38.440Z,20.00
2018-08-31T12:14:08.100Z,19.20
2018-08-31T12:19:28.757Z,19.80
2018-08-31T12:24:47.676Z,20.10
2018-08-31T12:30:17.467Z,19.90
2018-08-31T12:35:38.203Z,19.80
2018-08-31T12:38:06.895Z,19.80
2018-08-31T12:40:36.055Z,19.70
2018-08-31T12:43:05.675Z,19.70
2018-08-31T12:45:34.147Z,19.70
2018-08-31T12:48:03.404Z,19.60
2018-08-31T12:50:32.350Z,19.50
2018-08-31T12:53:00.714Z,19.30
2018-08-31T12:55:28.988Z,19.10
2018-08-31T12:57:57.044Z,19.00
2018-08-31T13:00:26.300Z,19.00
2018-08-31T13:02:54.268Z,18.90
2018-08-31T13:05:22.420Z,18.90
2018-08-31T13:07:50.601Z,18.90
2018-08-31T13:10:18.611Z,18.80
2018-08-31T13:12:47.154Z,18.70
2018-08-31T13:15:15.980Z,18.60
2018-08-31T13:17:43.931Z,18.60
2018-08-31T13:20:12.033Z,18.60
2018-08-31T13:22:40.198Z,18.60
2018-08-31T13:25:08.421Z,18.60
2018-08-31T13:27:36.478Z,18.50
2018-08-31T13:30:04.685Z,18.50
2018-08-31T13:32:32.810Z,18.40
2018-08-31T13:35:01.122Z,18.30
2018-08-31T13:37:29.420Z,18.20
2018-08-31T13:39:58.505Z,18.10
2018-08-31T13:42:26.629Z,18.00
2018-08-31T13:44:54.454Z,17.90
2018-08-31T13:47:22.466Z,17.80
2018-08-31T13:49:50.888Z,17.70
2018-08-31T13:52:19.261Z,17.60
2018-08-31T13:54:47.382Z,17.50
2018-08-31T13:57:15.719Z,17.40
2018-08-31T13:59:44.280Z,17.40
2018-08-31T14:02:12.911Z,17.40
2018-08-31T14:04:41.818Z,17.30
2018-08-31T14:07:11.350Z,17.30
2018-08-31T14:09:40.047Z,17.20
2018-08-31T14:12:08.231Z,17.10
2018-08-31T14:14:47.244Z,17.10
2018-08-31T14:17:15.239Z,17.10
2018-08-31T14:19:43.494Z,17.10
2018-08-31T14:22:12.021Z,17.00
2018-08-31T14:24:40.330Z,17.00
2018-08-31T14:27:08.619Z,16.90
2018-08-31T14:29:36.901Z,16.90
2018-08-31T14:32:04.911Z,16.90
2018-08-31T14:34:33.135Z,16.80
2018-08-31T14:37:01.667Z,16.80
2018-08-31T14:39:29.960Z,16.70
2018-08-31T14:41:58.023Z,16.60
2018-08-31T14:44:26.160Z,16.50
2018-08-31T14:46:54.460Z,16.50
2018-08-31T14:49:22.756Z,16.50
2018-08-31T14:51:50.916Z,16.40
2018-08-31T14:54:19.080Z,16.30
2018-08-31T14:56:47.890Z,16.30
2018-08-31T14:59:16.060Z,16.20
2018-08-31T15:01:44.357Z,16.20
2018-08-31T15:04:12.493Z,16.20
2018-08-31T15:06:40.608Z,16.10
2018-08-31T15:09:09.543Z,16.20
2018-08-31T15:11:37.842Z,16.20
2018-08-31T15:14:06.114Z,16.20
2018-08-31T15:16:34.144Z,16.20
2018-08-31T15:19:02.232Z,16.20
2018-08-31T15:21:30.896Z,16.30
2018-08-31T15:23:59.277Z,16.30
2018-08-31T15:26:28.119Z,16.30
2018-08-31T15:31:41.657Z,16.30
2018-08-31T15:34:10.101Z,16.30
2018-08-31T15:36:37.883Z,16.30
2018-08-31T15:39:08.474Z,16.30
2018-08-31T15:41:36.368Z,16.30
2018-08-31T15:44:04.534Z,16.30
2018-08-31T15:46:32.688Z,16.30
2018-08-31T15:49:00.806Z,16.20
2018-08-31T15:51:28.905Z,16.20
2018-08-31T15:56:44.092Z,16.20
2018-08-31T15:59:13.365Z,16.20
2018-08-31T16:01:41.704Z,16.20
2018-08-31T16:04:09.792Z,16.10
2018-08-31T16:06:37.907Z,16.10
2018-08-31T16:09:06.735Z,16.10
2018-08-31T16:11:34.675Z,16.10
2018-08-31T16:14:02.777Z,16.00
2018-08-31T16:16:31.373Z,16.00
2018-08-31T16:18:59.861Z,15.90
2018-08-31T16:21:28.244Z,15.90
2018-08-31T16:23:56.208Z,15.90
2018-08-31T16:26:24.596Z,15.80
2018-08-31T16:28:52.840Z,15.80
2018-08-31T16:31:21.053Z,15.70
2018-08-31T16:33:49.371Z,15.70
2018-08-31T16:36:17.200Z,15.60
2018-08-31T16:38:45.450Z,15.60
2018-08-31T16:41:13.327Z,15.60
2018-08-31T16:43:41.279Z,15.50
2018-08-31T16:46:09.636Z,15.50
2018-08-31T16:48:38.019Z,15.50
2018-08-31T16:51:06.510Z,15.40
2018-08-31T16:53:35.167Z,15.40
2018-08-31T16:56:03.864Z,15.40
2018-08-31T16:58:31.794Z,15.30
2018-08-31T17:00:59.571Z,15.30
2018-08-31T17:03:28.189Z,15.20
2018-08-31T17:05:56.265Z,15.20
2018-08-31T17:08:25.582Z,15.10
2018-08-31T17:10:54.184Z,15.10
2018-08-31T17:13:23.184Z,15.10
2018-08-31T17:15:51.917Z,15.10
2018-08-31T17:18:20.171Z,15.10
2018-08-31T17:20:48.773Z,15.00
2018-08-31T17:23:17.030Z,15.00
2018-08-31T17:28:18.585Z,15.00
2018-08-31T17:30:46.555Z,14.90
2018-08-31T17:33:19.955Z,14.90
2018-08-31T17:35:53.623Z,14.90
2018-08-31T17:38:22.580Z,14.80
2018-08-31T17:40:51.615Z,14.80
2018-08-31T17:43:20.300Z,14.80
2018-08-31T17:45:48.404Z,14.80
2018-08-31T17:48:17.089Z,14.70
2018-08-31T17:50:45.778Z,14.60
2018-08-31T17:53:14.348Z,14.60
2018-08-31T17:55:43.565Z,14.50
2018-08-31T17:58:11.830Z,14.50
2018-08-31T18:00:40.967Z,14.40
2018-08-31T18:03:09.122Z,14.30
2018-08-31T18:05:37.566Z,14.20
2018-08-31T18:08:05.708Z,14.20
2018-08-31T18:10:34.405Z,14.10
2018-08-31T18:13:03.279Z,14.00
2018-08-31T18:15:31.595Z,13.90
2018-08-31T18:17:59.869Z,13.90
2018-08-31T18:20:28.125Z,13.80
2018-08-31T18:22:57.178Z,13.80
2018-08-31T18:25:26.318Z,13.80
2018-08-31T18:27:55.054Z,13.70
2018-08-31T18:30:24.295Z,13.70
2018-08-31T18:32:52.473Z,13.60
2018-08-31T18:35:21.490Z,13.60
2018-08-31T18:37:53.301Z,13.50
2018-08-31T18:40:21.652Z,13.50
2018-08-31T18:42:50.438Z,13.50
2018-08-31T18:45:19.482Z,13.40
2018-08-31T18:50:18.023Z,13.30
2018-08-31T18:52:46.398Z,13.30
2018-08-31T18:55:15.025Z,13.20
2018-08-31T18:57:43.528Z,13.20
2018-08-31T19:03:03.055Z,13.20
2018-08-31T19:08:20.807Z,13.30
2018-08-31T19:10:52.448Z,13.30
2018-08-31T19:13:23.507Z,13.30
2018-08-31T19:18:42.279Z,13.30
2018-08-31T19:21:13.180Z,13.30
2018-08-31T19:23:48.971Z,13.30
2018-08-31T19:26:21.091Z,13.20
2018-08-31T19:31:35.981Z,13.20
2018-08-31T19:36:55.445Z,13.10
2018-08-31T19:39:23.871Z,13.20
2018-08-31T19:41:52.436Z,13.20
2018-08-31T19:44:21.175Z,13.20
2018-08-31T19:46:49.482Z,13.20
2018-08-31T19:49:17.810Z,13.20
2018-08-31T19:51:47.010Z,13.20
2018-08-31T19:54:15.078Z,13.10
2018-08-31T19:56:43.890Z,13.10
2018-08-31T19:59:12.266Z,13.10
2018-08-31T20:01:40.593Z,13.10
2018-08-31T20:04:09.179Z,13.10
2018-08-31T20:06:37.358Z,13.10
2018-08-31T20:09:06.643Z,13.10
2018-08-31T20:11:34.901Z,13.10
2018-08-31T20:14:04.113Z,13.00
2018-08-31T20:16:32.702Z,13.00
2018-08-31T20:19:01.046Z,13.00
2018-08-31T20:21:29.872Z,13.00
2018-08-31T20:23:58.152Z,13.00
2018-08-31T20:26:27.370Z,13.00
2018-08-31T20:28:55.899Z,12.90
2018-08-31T20:31:24.880Z,12.90
2018-08-31T20:33:53.769Z,12.80
2018-08-31T20:36:22.136Z,12.80
2018-08-31T20:38:51.885Z,12.80
2018-08-31T20:41:21.273Z,12.80
2018-08-31T20:43:50.186Z,12.70
2018-08-31T20:46:19.084Z,12.70
2018-08-31T20:48:47.434Z,12.70
2018-08-31T20:51:15.502Z,12.70
2018-08-31T20:53:43.810Z,12.70
2018-08-31T20:56:12.101Z,12.70
2018-08-31T20:58:40.683Z,12.60
2018-08-31T21:01:09.164Z,12.60
2018-08-31T21:03:37.687Z,12.60
2018-08-31T21:06:06.332Z,12.60
2018-08-31T21:08:34.564Z,12.60
2018-08-31T21:11:03.032Z,12.50
2018-08-31T21:13:31.381Z,12.50
2018-08-31T21:15:59.247Z,12.50
2018-08-31T21:18:27.429Z,12.50
2018-08-31T21:20:55.327Z,12.60
2018-08-31T21:23:23.675Z,12.60
2018-08-31T21:25:52.007Z,12.60
2018-08-31T21:28:20.156Z,12.60
2018-08-31T21:30:48.828Z,12.60
2018-08-31T21:33:17.114Z,12.60
2018-08-31T21:35:45.456Z,12.60
2018-08-31T21:38:13.372Z,12.60
2018-08-31T21:40:41.518Z,12.50
2018-08-31T21:43:10.299Z,12.50
2018-08-31T21:45:38.438Z,12.50
2018-08-31T21:48:06.961Z,12.40
2018-08-31T21:50:35.527Z,12.40
2018-08-31T21:53:03.953Z,12.40
2018-08-31T21:55:32.969Z,12.40
2018-08-31T21:58:01.174Z,12.40
2018-08-31T22:00:29.545Z,12.40
2018-08-31T22:02:57.846Z,12.30
2018-08-31T22:05:26.074Z,12.30
2018-08-31T22:07:54.399Z,12.30
2018-08-31T22:10:22.864Z,12.40
2018-08-31T22:12:51.133Z,12.30
2018-08-31T22:15:25.812Z,12.30
2018-08-31T22:17:54.038Z,12.30
2018-08-31T22:20:22.553Z,12.30
2018-08-31T22:22:51.997Z,12.30
2018-08-31T22:25:20.202Z,12.30
2018-08-31T22:27:48.680Z,12.30
2018-08-31T22:30:16.812Z,12.20
2018-08-31T22:32:45.099Z,12.20
2018-08-31T22:35:13.755Z,12.20
2018-08-31T22:37:42.130Z,12.20
2018-08-31T22:40:10.556Z,12.20
2018-08-31T22:42:38.697Z,12.20
2018-08-31T22:45:11.420Z,12.20
2018-08-31T22:47:40.064Z,12.10
2018-08-31T22:50:08.105Z,12.00
2018-08-31T22:52:36.210Z,12.00
2018-08-31T22:55:05.006Z,12.00
2018-08-31T22:57:33.285Z,12.00
2018-08-31T23:00:01.499Z,12.00
2018-08-31T23:02:30.089Z,12.00
2018-08-31T23:04:58.587Z,11.90
2018-08-31T23:07:31.881Z,11.90
2018-08-31T23:09:59.799Z,11.90
2018-08-31T23:12:27.658Z,11.90
2018-08-31T23:14:55.804Z,11.90
2018-08-31T23:17:28.235Z,11.90
2018-08-31T23:19:56.905Z,11.90
2018-08-31T23:22:25.285Z,11.80
2018-08-31T23:24:53.557Z,11.80
2018-08-31T23:27:21.714Z,11.80
2018-08-31T23:29:49.767Z,11.80
2018-08-31T23:32:17.998Z,11.80
2018-08-31T23:34:45.964Z,11.70
2018-08-31T23:37:14.275Z,11.70
2018-08-31T23:39:42.299Z,11.70
2018-08-31T23:42:10.395Z,11.60
2018-08-31T23:44:38.796Z,11.50
2018-08-31T23:47:07.464Z,11.50
2018-08-31T23:49:36.108Z,11.50
2018-08-31T23:52:04.160Z,11.40
2018-08-31T23:54:32.393Z,11.40
2018-08-31T23:57:00.596Z,11.40
2018-08-31T23:59:28.903Z,11.30
